Terminal Aerodrome Forecast
Issued by NWS Wilmington, OH

Current Version | Previous Version | Text Only | Print | Product List | Glossary Off
Versions: 1 2 3 4 5 6 7 8 9 10 11 12 13 14 15 16

497
FTUS41 KILN 251125
TAFCMH
TAF
KCMH 251125Z 2512/2612 15004KT P6SM FEW150 BKN250
     FM251300 23005KT P6SM SCT100 BKN250
     FM251600 26010KT P6SM VCTS BKN040CB BKN100 BKN250
     FM252100 28009KT P6SM VCTS SCT040CB BKN100 BKN250
     FM260100 24004KT P6SM SCT250
      TEMPO 2608/2612 4SM BR=

USA.gov is the U.S. government's official web portal to all federal, state and local government web resources and services.